Commodore Goodwill — C6NU8 — position and weather

sailwx.info

Track history (hours):
 
Tides and Currents Weather Stations Pressure Air Temp Water Temp Dewpoint Dewpoint Depression Visibility Wind Speed Wind Dir Waves Ship Positions

Commodore Goodwill

Operator: Condor Marine Services

Last reported at 2019-Jan-24 05:59 UTC. Time now 2019-Jan-24 06:13 UTC.
Position N 49°17' W 002°23'.

Length 126 m; draft 5.1 m.

Type: Ship (hazmat cat C). MMSI: 309536000.

Date/timePositionNaut miles runAvg speedWind from/ knotsBaromVisibWave heightAir tempDewpointWater temp
2019-Jan-24 05:59N 49°17' W 002°23'919.2
2019-Jan-24 05:30N 49°25' W 002°29'3 5.4
2019-Jan-24 05:00N 49°27' W 002°32'0 0.0
2019-Jan-24 04:30N 49°27' W 002°32'0 0.0
2019-Jan-24 04:00N 49°27' W 002°32'4 7.7
2019-Jan-24 03:30N 49°26' W 002°26'714.6
2019-Jan-24 03:00N 49°31' W 002°17'912.2
2019-Jan-24 02:16N 49°37' W 002°07'713.9
2019-Jan-24 01:45N 49°44' W 002°03'515.4
2019-Jan-24 01:26N 49°48' W 001°59'614.3
2019-Jan-24 01:00N 49°53' W 001°54'713.8
2019-Jan-24 00:30N 49°58' W 001°47'612.7
2019-Jan-24 00:00N 50°03' W 001°41'611.7
2019-Jan-23 23:30N 50°08' W 001°35'812.6
2019-Jan-23 22:52N 50°14' W 001°27'1913.4
2019-Jan-23 21:27N 50°30' W 001°12'813.4
2019-Jan-23 20:51N 50°37' W 001°04'514.9
2019-Jan-23 20:30N 50°41' W 001°00'714.6
2019-Jan-23 20:00N 50°47' W 001°07'2 3.1
2019-Jan-23 19:30N 50°49' W 001°06'0 0.0
2019-Jan-23 19:00N 50°49' W 001°06'0 0.0
2019-Jan-23 18:30N 50°49' W 001°06'0 0.0
2019-Jan-23 18:00N 50°49' W 001°06'0 0.0
2019-Jan-23 17:30N 50°49' W 001°06'0 0.0
2019-Jan-23 17:00N 50°49' W 001°06'0 0.0
2019-Jan-23 16:30N 50°49' W 001°06'2 4.2
2019-Jan-23 16:00N 50°47' W 001°06'713.3
2019-Jan-23 15:30N 50°40' W 001°04'713.3
2019-Jan-23 15:00N 50°35' W 001°10'612.2
2019-Jan-23 14:30N 50°30' W 001°17'2715.0
2019-Jan-23 12:43N 50°08' W 001°39'417.3
2019-Jan-23 12:30N 50°05' W 001°43'1217.8
2019-Jan-23 11:51N 49°55' W 001°51'618.4
2019-Jan-23 11:30N 49°49' W 001°56'1618.9
2019-Jan-23 10:40N 49°35' W 002°08'318.9
2019-Jan-23 10:31N 49°33' W 002°10'1019.5
2019-Jan-23 10:01N 49°24' W 002°17'816.0
2019-Jan-23 09:31N 49°18' W 002°26'1016.4
2019-Jan-23 08:55N 49°11' W 002°17'0 0.1
2019-Jan-23 05:33N 49°10' W 002°17'920.2
2019-Jan-23 05:08N 49°17' W 002°24'219.4
2019-Jan-23 05:01N 49°20' W 002°26'917.4
2019-Jan-23 04:31N 49°27' W 002°31'0 0.3
2019-Jan-23 04:01N 49°27' W 002°32'0 0.0
2019-Jan-23 03:30N 49°27' W 002°32'1 2.6
2019-Jan-23 03:00N 49°27' W 002°30'611.8
2019-Jan-23 02:30N 49°29' W 002°21'815.1
2019-Jan-23 02:00N 49°33' W 002°12'1718.2
2019-Jan-23 01:05N 49°48' W 002°00'117.6
2019-Jan-23 01:01N 49°49' W 001°59'816.4
2019-Jan-23 00:30N 49°55' W 001°51'714.6
2019-Jan-23 00:00N 50°01' W 001°43'713.7
2019-Jan-22 23:30N 50°07' W 001°38'813.0
2019-Jan-22 22:56N 50°13' W 001°31'2112.9
2019-Jan-22 21:19N 50°30' W 001°12'712.1
2019-Jan-22 20:46N 50°35' W 001°06'312.7
2019-Jan-22 20:29N 50°38' W 001°03'613.0
2019-Jan-22 20:01N 50°44' W 001°04'5 9.7
2019-Jan-22 19:31N 50°49' W 001°06'0 0.2
2019-Jan-22 19:00N 50°49' W 001°06'0 0.0
2019-Jan-22 18:30N 50°49' W 001°06'0 0.0
2019-Jan-22 18:00N 50°49' W 001°06'0 0.0
2019-Jan-22 17:30N 50°49' W 001°06'0 0.0
2019-Jan-22 17:00N 50°49' W 001°06'0 0.0
2019-Jan-22 16:30N 50°49' W 001°06'2 3.6
2019-Jan-22 16:00N 50°47' W 001°06'714.4
2019-Jan-22 15:30N 50°41' W 001°01'815.2
2019-Jan-22 14:59N 50°34' W 001°07'714.7
2019-Jan-22 14:31N 50°29' W 001°16'2414.3
2019-Jan-22 12:52N 50°09' W 001°35'914.9
2019-Jan-22 12:16N 50°02' W 001°43'515.5
2019-Jan-22 11:57N 49°58' W 001°48'715.9
2019-Jan-22 11:30N 49°52' W 001°53'815.5
2019-Jan-22 10:58N 49°45' W 002°01'1316.4
2019-Jan-22 10:09N 49°33' W 002°10'317.3
2019-Jan-22 10:00N 49°31' W 002°11'917.7
2019-Jan-22 09:30N 49°23' W 002°17'714.0
2019-Jan-22 09:00N 49°17' W 002°23'8 2.2
2019-Jan-22 05:25N 49°10' W 002°17'819.4
2019-Jan-22 05:00N 49°17' W 002°23'918.8
2019-Jan-22 04:31N 49°25' W 002°29'3 5.4
2019-Jan-22 04:00N 49°27' W 002°32'0 0.0
2019-Jan-22 03:30N 49°27' W 002°32'4 4.1
2019-Jan-22 02:30N 49°26' W 002°26'816.5
2019-Jan-22 02:01N 49°31' W 002°15'1914.0
2019-Jan-22 00:40N 49°47' W 002°01'214.6
2019-Jan-22 00:30N 49°49' W 001°59'713.7
2019-Jan-22 00:00N 49°55' W 001°53'714.6
2019-Jan-21 23:30N 50°02' W 001°48'714.8
2019-Jan-21 23:01N 50°07' W 001°40'2815.2
2019-Jan-21 21:09N 50°30' W 001°14'214.4
2019-Jan-21 21:00N 50°32' W 001°12'714.5
2019-Jan-21 20:29N 50°38' W 001°06'613.3
2019-Jan-21 20:01N 50°45' W 001°05'4 8.5
2019-Jan-21 19:30N 50°49' W 001°06'0 0.0
2019-Jan-21 19:00N 50°49' W 001°06'0 0.0
2019-Jan-21 18:30N 50°49' W 001°06'0 0.0
2019-Jan-21 18:00N 50°49' W 001°06'0 0.0
2019-Jan-21 17:30N 50°49' W 001°06'0 0.0
2019-Jan-21 17:01N 50°49' W 001°06'0 0.0
2019-Jan-21 16:30N 50°49' W 001°06'2 4.1
2019-Jan-21 16:00N 50°47' W 001°06'714.1
2019-Jan-21 15:30N 50°41' W 001°00'713.4
2019-Jan-21 15:00N 50°35' W 001°06'713.3
2019-Jan-21 14:30N 50°30' W 001°13'2614.3
2019-Jan-21 12:40N 50°09' W 001°38'1013.2
2019-Jan-21 11:55N 50°00' W 001°45'614.4
2019-Jan-21 11:30N 49°55' W 001°50'917.6
2019-Jan-21 10:59N 49°48' W 001°59'1117.6
2019-Jan-21 10:22N 49°38' W 002°07'718.8
2019-Jan-21 10:00N 49°32' W 002°11'918.7
2019-Jan-21 09:30N 49°23' W 002°16'916.6
2019-Jan-21 08:59N 49°15' W 002°21'1 0.3
2019-Jan-21 05:14N 49°14' W 002°21'2 7.7
2019-Jan-21 04:54N 49°16' W 002°23'512.0
2019-Jan-21 04:30N 49°21' W 002°26'611.9
2019-Jan-21 04:00N 49°26' W 002°30'2 3.9
2019-Jan-21 03:31N 49°27' W 002°32'0 0.0
2019-Jan-21 03:01N 49°27' W 002°32'4 7.4
2019-Jan-21 02:31N 49°26' W 002°26'714.4
2019-Jan-21 02:00N 49°30' W 002°17'713.4
2019-Jan-21 01:28N 49°34' W 002°08'1312.8
2019-Jan-21 00:28N 49°46' W 002°01'613.5
2019-Jan-21 00:00N 49°51' W 001°55'714.2
2019-Jan-20 23:30N 49°57' W 001°49'714.0
2019-Jan-20 23:01N 50°04' W 001°44'917.3
2019-Jan-20 22:30N 50°11' W 001°38'2217.3
2019-Jan-20 21:13N 50°29' W 001°17'314.8
2019-Jan-20 21:00N 50°32' W 001°14'714.6
2019-Jan-20 20:30N 50°37' W 001°07'714.2
2019-Jan-20 20:00N 50°44' W 001°04'5 9.3
2019-Jan-20 19:31N 50°49' W 001°06'0 0.8
2019-Jan-20 19:01N 50°49' W 001°06'0 0.0
2019-Jan-20 18:31N 50°49' W 001°06'0 0.0
2019-Jan-20 18:01N 50°49' W 001°06'0 0.0
2019-Jan-20 17:30N 50°49' W 001°06'0 0.0
2019-Jan-20 17:01N 50°49' W 001°06'0 0.0
2019-Jan-20 16:31N 50°49' W 001°06'0 0.0
2019-Jan-20 16:00N 50°49' W 001°06'2 4.3
2019-Jan-20 15:31N 50°47' W 001°06'4 7.9
2019-Jan-20 15:00N 50°43' W 001°03'0 0.0
2019-Jan-20 14:30N 50°43' W 001°03'0 0.0
2019-Jan-20 14:00N 50°43' W 001°03'0 0.0
2019-Jan-20 13:30N 50°43' W 001°03'0 0.0
2019-Jan-20 13:00N 50°43' W 001°03'0 0.0
2019-Jan-20 12:30N 50°43' W 001°03'0 0.0
2019-Jan-20 12:00N 50°43' W 001°03'0 0.0
2019-Jan-20 11:30N 50°43' W 001°03'0 0.0
2019-Jan-20 11:00N 50°43' W 001°03'0 0.0
2019-Jan-20 10:30N 50°43' W 001°03'0 0.0
2019-Jan-20 09:57N 50°43' W 001°03'2 4.2
2019-Jan-20 09:31N 50°45' W 001°05'4 8.2
2019-Jan-20 09:00N 50°49' W 001°06'0 0.0
2019-Jan-20 08:30N 50°49' W 001°06'0 0.0
2019-Jan-20 08:00N 50°49' W 001°06'0 0.0
2019-Jan-20 07:30N 50°49' W 001°06'0 0.0
2019-Jan-20 07:00N 50°49' W 001°06'2 4.1
2019-Jan-20 06:30N 50°47' W 001°06'612.8
2019-Jan-20 06:01N 50°40' W 001°04'815.6
2019-Jan-20 05:30N 50°34' W 001°09'4 8.8
2019-Jan-20 05:00N 50°30' W 001°13'5410.0
2019-Jan-19 23:38N 49°45' W 002°01'7 8.6
2019-Jan-19 22:49N 49°39' W 002°06'7 9.8
2019-Jan-19 22:07N 49°33' W 002°10'1 9.9
2019-Jan-19 22:00N 49°32' W 002°11'610.8
2019-Jan-19 21:27N 49°26' W 002°14'510.8
2019-Jan-19 21:00N 49°23' W 002°19'510.4
2019-Jan-19 20:30N 49°20' W 002°26'4 8.3
2019-Jan-19 20:00N 49°18' W 002°31'712.6
2019-Jan-19 19:26N 49°12' W 002°26'3 0.2
2019-Jan-19 05:03N 49°14' W 002°22'217.1
2019-Jan-19 04:57N 49°16' W 002°23'817.4
2019-Jan-19 04:30N 49°23' W 002°28'510.1
2019-Jan-19 04:00N 49°27' W 002°32'0 0.0
2019-Jan-19 03:30N 49°27' W 002°32'0 0.0
2019-Jan-19 03:00N 49°27' W 002°32'4 8.0
2019-Jan-19 02:30N 49°26' W 002°26'815.5
2019-Jan-19 02:00N 49°31' W 002°16'813.7
2019-Jan-19 01:24N 49°37' W 002°08'614.4
2019-Jan-19 00:58N 49°43' W 002°05'5514.5
2019-Jan-18 21:11N 50°28' W 001°16'313.9
2019-Jan-18 21:00N 50°30' W 001°14'714.2
2019-Jan-18 20:30N 50°36' W 001°08'714.8
2019-Jan-18 20:00N 50°43' W 001°03'611.6
2019-Jan-18 19:30N 50°49' W 001°07'1 1.2
2019-Jan-18 19:00N 50°49' W 001°06'0 0.0
2019-Jan-18 18:30N 50°49' W 001°06'0 0.0
2019-Jan-18 18:00N 50°49' W 001°06'0 0.0
2019-Jan-18 17:30N 50°49' W 001°06'0 0.0
2019-Jan-18 17:00N 50°49' W 001°06'0 0.0
2019-Jan-18 16:30N 50°49' W 001°06'2 4.0
2019-Jan-18 16:00N 50°47' W 001°06'714.7
2019-Jan-18 15:31N 50°40' W 001°00'815.1
2019-Jan-18 15:00N 50°34' W 001°07'915.9
2019-Jan-18 14:26N 50°27' W 001°16'5316.0
2019-Jan-18 11:09N 49°44' W 002°03'1014.9
2019-Jan-18 10:27N 49°34' W 002°09'816.8
2019-Jan-18 10:00N 49°30' W 002°19'816.2
2019-Jan-18 09:31N 49°25' W 002°29'3 5.3
2019-Jan-18 09:00N 49°27' W 002°32'0 0.0
2019-Jan-18 08:30N 49°27' W 002°32'0 0.0
2019-Jan-18 08:00N 49°27' W 002°32'5 9.8
2019-Jan-18 07:30N 49°23' W 002°27'816.8
2019-Jan-18 07:01N 49°16' W 002°22'3 0.7
2019-Jan-18 02:49N 49°18' W 002°19'516.2
2019-Jan-18 02:29N 49°23' W 002°16'814.9
2019-Jan-18 01:58N 49°30' W 002°11'1015.7
2019-Jan-18 01:19N 49°40' W 002°06'6116.0
2019-Jan-17 21:32N 50°30' W 001°14'014.8
2019-Jan-17 21:30N 50°31' W 001°14'815.3
2019-Jan-17 21:00N 50°37' W 001°07'714.5
2019-Jan-17 20:31N 50°44' W 001°04'5 9.2
2019-Jan-17 20:00N 50°49' W 001°06'0 0.0
2019-Jan-17 19:30N 50°49' W 001°06'0 0.0
2019-Jan-17 19:00N 50°49' W 001°06'0 0.0
2019-Jan-17 18:30N 50°49' W 001°06'0 0.0
2019-Jan-17 18:00N 50°49' W 001°06'0 0.0
2019-Jan-17 17:30N 50°49' W 001°06'0 0.0
2019-Jan-17 17:00N 50°49' W 001°06'0 0.0
2019-Jan-17 16:30N 50°49' W 001°06'2 3.7
2019-Jan-17 16:00N 50°47' W 001°06'713.9
2019-Jan-17 15:30N 50°40' W 001°04'816.7
2019-Jan-17 15:00N 50°33' W 001°11'5515.9
2019-Jan-17 11:33N 49°47' W 001°59'2615.7
2019-Jan-17 09:54N 49°24' W 002°16'914.6
2019-Jan-17 09:19N 49°17' W 002°23'816.4
2019-Jan-17 08:51N 49°10' W 002°18'5 1.2
2019-Jan-17 05:09N 49°12' W 002°24'215.0
2019-Jan-17 04:59N 49°14' W 002°22'612.6
2019-Jan-17 04:30N 49°20' W 002°25'815.7
2019-Jan-17 04:00N 49°27' W 002°31'1 0.8
2019-Jan-17 03:00N 49°27' W 002°32'4 7.3
2019-Jan-17 02:30N 49°26' W 002°27'611.7
2019-Jan-17 02:00N 49°30' W 002°19'610.2
2019-Jan-17 01:27N 49°33' W 002°12'610.3
2019-Jan-17 00:51N 49°38' W 002°07'713.0
2019-Jan-17 00:19N 49°44' W 002°03'413.0
2019-Jan-16 23:59N 49°48' W 001°59'4917.5
2019-Jan-16 21:12N 50°29' W 001°17'417.9
2019-Jan-16 20:58N 50°32' W 001°13'818.1
2019-Jan-16 20:30N 50°39' W 001°06'715.0
2019-Jan-16 20:00N 50°46' W 001°06'3 5.1
2019-Jan-16 19:30N 50°49' W 001°06'0 0.0
2019-Jan-16 19:00N 50°49' W 001°06'0 0.0
2019-Jan-16 18:30N 50°49' W 001°06'0 0.0
2019-Jan-16 18:00N 50°49' W 001°06'0 0.0
2019-Jan-16 17:30N 50°49' W 001°06'0 0.0
2019-Jan-16 17:00N 50°49' W 001°06'0 0.0
2019-Jan-16 16:30N 50°49' W 001°06'2 3.5
2019-Jan-16 16:00N 50°47' W 001°06'714.0
2019-Jan-16 15:31N 50°40' W 001°04'917.3
2019-Jan-16 15:00N 50°33' W 001°11'5715.9
2019-Jan-16 11:25N 49°45' W 002°01'1213.0
2019-Jan-16 10:28N 49°34' W 002°09'612.9
2019-Jan-16 10:00N 49°29' W 002°12'612.9
2019-Jan-16 09:30N 49°23' W 002°17'712.9
2019-Jan-16 09:00N 49°17' W 002°20'912.7
2019-Jan-16 08:18N 49°10' W 002°12'9 2.8
2019-Jan-16 05:04N 49°15' W 002°23'117.4
2019-Jan-16 05:00N 49°16' W 002°24'917.5
2019-Jan-16 04:31N 49°24' W 002°28'4 8.0
2019-Jan-16 04:00N 49°27' W 002°32'0 0.0
2019-Jan-16 03:30N 49°27' W 002°32'0 0.0
2019-Jan-16 03:00N 49°27' W 002°32'4 8.0
2019-Jan-16 02:30N 49°26' W 002°26'714.7
2019-Jan-16 02:00N 49°31' W 002°17'814.9
2019-Jan-16 01:27N 49°37' W 002°08'714.3
2019-Jan-16 00:57N 49°44' W 002°04'5814.9
2019-Jan-15 21:01N 50°32' W 001°13'017.5
2019-Jan-15 21:00N 50°32' W 001°12'917.9
2019-Jan-15 20:30N 50°39' W 001°05'714.6
2019-Jan-15 20:00N 50°47' W 001°06'2 4.3
2019-Jan-15 19:30N 50°49' W 001°06'0 0.0
2019-Jan-15 19:00N 50°49' W 001°06'0 0.0
2019-Jan-15 18:30N 50°49' W 001°06'0 0.0
2019-Jan-15 18:00N 50°49' W 001°06'0 0.0
2019-Jan-15 17:30N 50°49' W 001°06'0 0.0
2019-Jan-15 17:00N 50°49' W 001°06'0 0.0
2019-Jan-15 16:30N 50°49' W 001°06'2 3.5
2019-Jan-15 16:00N 50°47' W 001°06'714.1
2019-Jan-15 15:30N 50°40' W 001°04'917.6
2019-Jan-15 15:00N 50°32' W 001°11'3315.8
2019-Jan-15 12:56N 50°05' W 001°39'1116.2
2019-Jan-15 12:13N 49°56' W 001°50'315.4
2019-Jan-15 12:00N 49°53' W 001°53'1714.6
2019-Jan-15 10:52N 49°39' W 002°06'713.5
2019-Jan-15 10:19N 49°32' W 002°11'513.2
2019-Jan-15 09:57N 49°28' W 002°13'613.3
2019-Jan-15 09:29N 49°22' W 002°17'714.6
2019-Jan-15 08:59N 49°15' W 002°21'1 0.3
2019-Jan-15 04:57N 49°16' W 002°23'715.7
2019-Jan-15 04:30N 49°22' W 002°27'612.0
2019-Jan-15 04:00N 49°27' W 002°32'0 0.0
2019-Jan-15 03:30N 49°27' W 002°32'0 0.0
2019-Jan-15 03:01N 49°27' W 002°32'4 7.6
2019-Jan-15 02:31N 49°26' W 002°26'612.8
2019-Jan-15 02:00N 49°30' W 002°18'713.0
2019-Jan-15 01:30N 49°34' W 002°10'1511.3
2019-Jan-15 00:13N 49°47' W 002°01'211.3
2019-Jan-15 00:01N 49°49' W 001°58'612.0
2019-Jan-14 23:30N 49°53' W 001°52'815.1
2019-Jan-14 23:01N 49°59' W 001°44'816.1
2019-Jan-14 22:30N 50°06' W 001°39'2816.7
2019-Jan-14 20:51N 50°30' W 001°16'617.7
2019-Jan-14 20:30N 50°35' W 001°10'917.3
2019-Jan-14 20:00N 50°42' W 001°03'713.5
2019-Jan-14 19:30N 50°48' W 001°07'1 1.7
2019-Jan-14 19:00N 50°49' W 001°06'0 0.0
2019-Jan-14 18:30N 50°49' W 001°06'0 0.0
2019-Jan-14 18:01N 50°49' W 001°06'0 0.0
2019-Jan-14 17:30N 50°49' W 001°06'0 0.0
2019-Jan-14 17:00N 50°49' W 001°06'0 0.0
2019-Jan-14 16:30N 50°49' W 001°06'2 4.4
2019-Jan-14 16:00N 50°47' W 001°06'612.9
2019-Jan-14 15:30N 50°40' W 001°04'918.4
2019-Jan-14 15:00N 50°32' W 001°12'3716.1
2019-Jan-14 12:43N 50°03' W 001°47'614.2
2019-Jan-14 12:16N 49°58' W 001°51'414.2
2019-Jan-14 12:00N 49°54' W 001°53'2215.7
2019-Jan-14 10:34N 49°34' W 002°09'114.4
2019-Jan-14 10:30N 49°33' W 002°10'714.6
2019-Jan-14 10:00N 49°27' W 002°15'714.9
2019-Jan-14 09:30N 49°21' W 002°21'811.7
2019-Jan-14 08:52N 49°13' W 002°20'  
Track history (hours):
 
Tides and Currents Weather Stations Pressure Air Temp Water Temp Dewpoint Dewpoint Depression Visibility Wind Speed Wind Dir Waves Ship Positions

Commodore Goodwill

Operator: Condor Marine Services

Last reported at 2019-Jan-24 05:59 UTC. Time now 2019-Jan-24 06:13 UTC.
Position N 49°17' W 002°23'.

Length 126 m; draft 5.1 m.

Type: Ship (hazmat cat C). MMSI: 309536000.

Date/timePositionNaut miles runAvg speedWind from/ knotsBaromVisibWave heightAir tempDewpointWater temp
2019-Jan-24 05:59N 49°17' W 002°23'919.2
2019-Jan-24 05:30N 49°25' W 002°29'3 5.4
2019-Jan-24 05:00N 49°27' W 002°32'0 0.0
2019-Jan-24 04:30N 49°27' W 002°32'0 0.0
2019-Jan-24 04:00N 49°27' W 002°32'4 7.7
2019-Jan-24 03:30N 49°26' W 002°26'714.6
2019-Jan-24 03:00N 49°31' W 002°17'912.2
2019-Jan-24 02:16N 49°37' W 002°07'713.9
2019-Jan-24 01:45N 49°44' W 002°03'515.4
2019-Jan-24 01:26N 49°48' W 001°59'614.3
2019-Jan-24 01:00N 49°53' W 001°54'713.8
2019-Jan-24 00:30N 49°58' W 001°47'612.7
2019-Jan-24 00:00N 50°03' W 001°41'611.7
2019-Jan-23 23:30N 50°08' W 001°35'812.6
2019-Jan-23 22:52N 50°14' W 001°27'1913.4
2019-Jan-23 21:27N 50°30' W 001°12'813.4
2019-Jan-23 20:51N 50°37' W 001°04'514.9
2019-Jan-23 20:30N 50°41' W 001°00'714.6
2019-Jan-23 20:00N 50°47' W 001°07'2 3.1
2019-Jan-23 19:30N 50°49' W 001°06'0 0.0
2019-Jan-23 19:00N 50°49' W 001°06'0 0.0
2019-Jan-23 18:30N 50°49' W 001°06'0 0.0
2019-Jan-23 18:00N 50°49' W 001°06'0 0.0
2019-Jan-23 17:30N 50°49' W 001°06'0 0.0
2019-Jan-23 17:00N 50°49' W 001°06'0 0.0
2019-Jan-23 16:30N 50°49' W 001°06'2 4.2
2019-Jan-23 16:00N 50°47' W 001°06'713.3
2019-Jan-23 15:30N 50°40' W 001°04'713.3
2019-Jan-23 15:00N 50°35' W 001°10'612.2
2019-Jan-23 14:30N 50°30' W 001°17'2715.0
2019-Jan-23 12:43N 50°08' W 001°39'417.3
2019-Jan-23 12:30N 50°05' W 001°43'1217.8
2019-Jan-23 11:51N 49°55' W 001°51'618.4
2019-Jan-23 11:30N 49°49' W 001°56'1618.9
2019-Jan-23 10:40N 49°35' W 002°08'318.9
2019-Jan-23 10:31N 49°33' W 002°10'1019.5
2019-Jan-23 10:01N 49°24' W 002°17'816.0
2019-Jan-23 09:31N 49°18' W 002°26'1016.4
2019-Jan-23 08:55N 49°11' W 002°17'0 0.1
2019-Jan-23 05:33N 49°10' W 002°17'920.2
2019-Jan-23 05:08N 49°17' W 002°24'219.4
2019-Jan-23 05:01N 49°20' W 002°26'917.4
2019-Jan-23 04:31N 49°27' W 002°31'0 0.3
2019-Jan-23 04:01N 49°27' W 002°32'0 0.0
2019-Jan-23 03:30N 49°27' W 002°32'1 2.6
2019-Jan-23 03:00N 49°27' W 002°30'611.8
2019-Jan-23 02:30N 49°29' W 002°21'815.1
2019-Jan-23 02:00N 49°33' W 002°12'1718.2
2019-Jan-23 01:05N 49°48' W 002°00'117.6
2019-Jan-23 01:01N 49°49' W 001°59'816.4
2019-Jan-23 00:30N 49°55' W 001°51'714.6
2019-Jan-23 00:00N 50°01' W 001°43'713.7
2019-Jan-22 23:30N 50°07' W 001°38'813.0
2019-Jan-22 22:56N 50°13' W 001°31'2112.9
2019-Jan-22 21:19N 50°30' W 001°12'712.1
2019-Jan-22 20:46N 50°35' W 001°06'312.7
2019-Jan-22 20:29N 50°38' W 001°03'613.0
2019-Jan-22 20:01N 50°44' W 001°04'5 9.7
2019-Jan-22 19:31N 50°49' W 001°06'0 0.2
2019-Jan-22 19:00N 50°49' W 001°06'0 0.0
2019-Jan-22 18:30N 50°49' W 001°06'0 0.0
2019-Jan-22 18:00N 50°49' W 001°06'0 0.0
2019-Jan-22 17:30N 50°49' W 001°06'0 0.0
2019-Jan-22 17:00N 50°49' W 001°06'0 0.0
2019-Jan-22 16:30N 50°49' W 001°06'2 3.6
2019-Jan-22 16:00N 50°47' W 001°06'714.4
2019-Jan-22 15:30N 50°41' W 001°01'815.2
2019-Jan-22 14:59N 50°34' W 001°07'714.7
2019-Jan-22 14:31N 50°29' W 001°16'2414.3
2019-Jan-22 12:52N 50°09' W 001°35'914.9
2019-Jan-22 12:16N 50°02' W 001°43'515.5
2019-Jan-22 11:57N 49°58' W 001°48'715.9
2019-Jan-22 11:30N 49°52' W 001°53'815.5
2019-Jan-22 10:58N 49°45' W 002°01'1316.4
2019-Jan-22 10:09N 49°33' W 002°10'317.3
2019-Jan-22 10:00N 49°31' W 002°11'917.7
2019-Jan-22 09:30N 49°23' W 002°17'714.0
2019-Jan-22 09:00N 49°17' W 002°23'8 2.2
2019-Jan-22 05:25N 49°10' W 002°17'819.4
2019-Jan-22 05:00N 49°17' W 002°23'918.8
2019-Jan-22 04:31N 49°25' W 002°29'3 5.4
2019-Jan-22 04:00N 49°27' W 002°32'0 0.0
2019-Jan-22 03:30N 49°27' W 002°32'4 4.1
2019-Jan-22 02:30N 49°26' W 002°26'816.5
2019-Jan-22 02:01N 49°31' W 002°15'1914.0
2019-Jan-22 00:40N 49°47' W 002°01'214.6
2019-Jan-22 00:30N 49°49' W 001°59'713.7
2019-Jan-22 00:00N 49°55' W 001°53'714.6
2019-Jan-21 23:30N 50°02' W 001°48'714.8
2019-Jan-21 23:01N 50°07' W 001°40'2815.2
2019-Jan-21 21:09N 50°30' W 001°14'214.4
2019-Jan-21 21:00N 50°32' W 001°12'714.5
2019-Jan-21 20:29N 50°38' W 001°06'613.3
2019-Jan-21 20:01N 50°45' W 001°05'4 8.5
2019-Jan-21 19:30N 50°49' W 001°06'0 0.0
2019-Jan-21 19:00N 50°49' W 001°06'0 0.0
2019-Jan-21 18:30N 50°49' W 001°06'0 0.0
2019-Jan-21 18:00N 50°49' W 001°06'0 0.0
2019-Jan-21 17:30N 50°49' W 001°06'0 0.0
2019-Jan-21 17:01N 50°49' W 001°06'0 0.0
2019-Jan-21 16:30N 50°49' W 001°06'2 4.1
2019-Jan-21 16:00N 50°47' W 001°06'714.1
2019-Jan-21 15:30N 50°41' W 001°00'713.4
2019-Jan-21 15:00N 50°35' W 001°06'713.3
2019-Jan-21 14:30N 50°30' W 001°13'2614.3
2019-Jan-21 12:40N 50°09' W 001°38'1013.2
2019-Jan-21 11:55N 50°00' W 001°45'614.4
2019-Jan-21 11:30N 49°55' W 001°50'917.6
2019-Jan-21 10:59N 49°48' W 001°59'1117.6
2019-Jan-21 10:22N 49°38' W 002°07'718.8
2019-Jan-21 10:00N 49°32' W 002°11'918.7
2019-Jan-21 09:30N 49°23' W 002°16'916.6
2019-Jan-21 08:59N 49°15' W 002°21'1 0.3
2019-Jan-21 05:14N 49°14' W 002°21'2 7.7
2019-Jan-21 04:54N 49°16' W 002°23'512.0
2019-Jan-21 04:30N 49°21' W 002°26'611.9
2019-Jan-21 04:00N 49°26' W 002°30'2 3.9
2019-Jan-21 03:31N 49°27' W 002°32'0 0.0
2019-Jan-21 03:01N 49°27' W 002°32'4 7.4
2019-Jan-21 02:31N 49°26' W 002°26'714.4
2019-Jan-21 02:00N 49°30' W 002°17'713.4
2019-Jan-21 01:28N 49°34' W 002°08'1312.8
2019-Jan-21 00:28N 49°46' W 002°01'613.5
2019-Jan-21 00:00N 49°51' W 001°55'714.2
2019-Jan-20 23:30N 49°57' W 001°49'714.0
2019-Jan-20 23:01N 50°04' W 001°44'917.3
2019-Jan-20 22:30N 50°11' W 001°38'2217.3
2019-Jan-20 21:13N 50°29' W 001°17'314.8
2019-Jan-20 21:00N 50°32' W 001°14'714.6
2019-Jan-20 20:30N 50°37' W 001°07'714.2
2019-Jan-20 20:00N 50°44' W 001°04'5 9.3
2019-Jan-20 19:31N 50°49' W 001°06'0 0.8
2019-Jan-20 19:01N 50°49' W 001°06'0 0.0
2019-Jan-20 18:31N 50°49' W 001°06'0 0.0
2019-Jan-20 18:01N 50°49' W 001°06'0 0.0
2019-Jan-20 17:30N 50°49' W 001°06'0 0.0
2019-Jan-20 17:01N 50°49' W 001°06'0 0.0
2019-Jan-20 16:31N 50°49' W 001°06'0 0.0
2019-Jan-20 16:00N 50°49' W 001°06'2 4.3
2019-Jan-20 15:31N 50°47' W 001°06'4 7.9
2019-Jan-20 15:00N 50°43' W 001°03'0 0.0
2019-Jan-20 14:30N 50°43' W 001°03'0 0.0
2019-Jan-20 14:00N 50°43' W 001°03'0 0.0
2019-Jan-20 13:30N 50°43' W 001°03'0 0.0
2019-Jan-20 13:00N 50°43' W 001°03'0 0.0
2019-Jan-20 12:30N 50°43' W 001°03'0 0.0
2019-Jan-20 12:00N 50°43' W 001°03'0 0.0
2019-Jan-20 11:30N 50°43' W 001°03'0 0.0
2019-Jan-20 11:00N 50°43' W 001°03'0 0.0
2019-Jan-20 10:30N 50°43' W 001°03'0 0.0
2019-Jan-20 09:57N 50°43' W 001°03'2 4.2
2019-Jan-20 09:31N 50°45' W 001°05'4 8.2
2019-Jan-20 09:00N 50°49' W 001°06'0 0.0
2019-Jan-20 08:30N 50°49' W 001°06'0 0.0
2019-Jan-20 08:00N 50°49' W 001°06'0 0.0
2019-Jan-20 07:30N 50°49' W 001°06'0 0.0
2019-Jan-20 07:00N 50°49' W 001°06'2 4.1
2019-Jan-20 06:30N 50°47' W 001°06'612.8
2019-Jan-20 06:01N 50°40' W 001°04'815.6
2019-Jan-20 05:30N 50°34' W 001°09'4 8.8
2019-Jan-20 05:00N 50°30' W 001°13'5410.0
2019-Jan-19 23:38N 49°45' W 002°01'7 8.6
2019-Jan-19 22:49N 49°39' W 002°06'7 9.8
2019-Jan-19 22:07N 49°33' W 002°10'1 9.9
2019-Jan-19 22:00N 49°32' W 002°11'610.8
2019-Jan-19 21:27N 49°26' W 002°14'510.8
2019-Jan-19 21:00N 49°23' W 002°19'510.4
2019-Jan-19 20:30N 49°20' W 002°26'4 8.3
2019-Jan-19 20:00N 49°18' W 002°31'712.6
2019-Jan-19 19:26N 49°12' W 002°26'3 0.2
2019-Jan-19 05:03N 49°14' W 002°22'217.1
2019-Jan-19 04:57N 49°16' W 002°23'817.4
2019-Jan-19 04:30N 49°23' W 002°28'510.1
2019-Jan-19 04:00N 49°27' W 002°32'0 0.0
2019-Jan-19 03:30N 49°27' W 002°32'0 0.0
2019-Jan-19 03:00N 49°27' W 002°32'4 8.0
2019-Jan-19 02:30N 49°26' W 002°26'815.5
2019-Jan-19 02:00N 49°31' W 002°16'813.7
2019-Jan-19 01:24N 49°37' W 002°08'614.4
2019-Jan-19 00:58N 49°43' W 002°05'5514.5
2019-Jan-18 21:11N 50°28' W 001°16'313.9
2019-Jan-18 21:00N 50°30' W 001°14'714.2
2019-Jan-18 20:30N 50°36' W 001°08'714.8
2019-Jan-18 20:00N 50°43' W 001°03'611.6
2019-Jan-18 19:30N 50°49' W 001°07'1 1.2
2019-Jan-18 19:00N 50°49' W 001°06'0 0.0
2019-Jan-18 18:30N 50°49' W 001°06'0 0.0
2019-Jan-18 18:00N 50°49' W 001°06'0 0.0
2019-Jan-18 17:30N 50°49' W 001°06'0 0.0
2019-Jan-18 17:00N 50°49' W 001°06'0 0.0
2019-Jan-18 16:30N 50°49' W 001°06'2 4.0
2019-Jan-18 16:00N 50°47' W 001°06'714.7
2019-Jan-18 15:31N 50°40' W 001°00'815.1
2019-Jan-18 15:00N 50°34' W 001°07'915.9
2019-Jan-18 14:26N 50°27' W 001°16'5316.0
2019-Jan-18 11:09N 49°44' W 002°03'1014.9
2019-Jan-18 10:27N 49°34' W 002°09'816.8
2019-Jan-18 10:00N 49°30' W 002°19'816.2
2019-Jan-18 09:31N 49°25' W 002°29'3 5.3
2019-Jan-18 09:00N 49°27' W 002°32'0 0.0
2019-Jan-18 08:30N 49°27' W 002°32'0 0.0
2019-Jan-18 08:00N 49°27' W 002°32'5 9.8
2019-Jan-18 07:30N 49°23' W 002°27'816.8
2019-Jan-18 07:01N 49°16' W 002°22'3 0.7
2019-Jan-18 02:49N 49°18' W 002°19'516.2
2019-Jan-18 02:29N 49°23' W 002°16'814.9
2019-Jan-18 01:58N 49°30' W 002°11'1015.7
2019-Jan-18 01:19N 49°40' W 002°06'6116.0
2019-Jan-17 21:32N 50°30' W 001°14'014.8
2019-Jan-17 21:30N 50°31' W 001°14'815.3
2019-Jan-17 21:00N 50°37' W 001°07'714.5
2019-Jan-17 20:31N 50°44' W 001°04'5 9.2
2019-Jan-17 20:00N 50°49' W 001°06'0 0.0
2019-Jan-17 19:30N 50°49' W 001°06'0 0.0
2019-Jan-17 19:00N 50°49' W 001°06'0 0.0
2019-Jan-17 18:30N 50°49' W 001°06'0 0.0
2019-Jan-17 18:00N 50°49' W 001°06'0 0.0
2019-Jan-17 17:30N 50°49' W 001°06'0 0.0
2019-Jan-17 17:00N 50°49' W 001°06'0 0.0
2019-Jan-17 16:30N 50°49' W 001°06'2 3.7
2019-Jan-17 16:00N 50°47' W 001°06'713.9
2019-Jan-17 15:30N 50°40' W 001°04'816.7
2019-Jan-17 15:00N 50°33' W 001°11'5515.9
2019-Jan-17 11:33N 49°47' W 001°59'2615.7
2019-Jan-17 09:54N 49°24' W 002°16'914.6
2019-Jan-17 09:19N 49°17' W 002°23'816.4
2019-Jan-17 08:51N 49°10' W 002°18'5 1.2
2019-Jan-17 05:09N 49°12' W 002°24'215.0
2019-Jan-17 04:59N 49°14' W 002°22'612.6
2019-Jan-17 04:30N 49°20' W 002°25'815.7
2019-Jan-17 04:00N 49°27' W 002°31'1 0.8
2019-Jan-17 03:00N 49°27' W 002°32'4 7.3
2019-Jan-17 02:30N 49°26' W 002°27'611.7
2019-Jan-17 02:00N 49°30' W 002°19'610.2
2019-Jan-17 01:27N 49°33' W 002°12'610.3
2019-Jan-17 00:51N 49°38' W 002°07'713.0
2019-Jan-17 00:19N 49°44' W 002°03'413.0
2019-Jan-16 23:59N 49°48' W 001°59'4917.5
2019-Jan-16 21:12N 50°29' W 001°17'417.9
2019-Jan-16 20:58N 50°32' W 001°13'818.1
2019-Jan-16 20:30N 50°39' W 001°06'715.0
2019-Jan-16 20:00N 50°46' W 001°06'3 5.1
2019-Jan-16 19:30N 50°49' W 001°06'0 0.0
2019-Jan-16 19:00N 50°49' W 001°06'0 0.0
2019-Jan-16 18:30N 50°49' W 001°06'0 0.0
2019-Jan-16 18:00N 50°49' W 001°06'0 0.0
2019-Jan-16 17:30N 50°49' W 001°06'0 0.0
2019-Jan-16 17:00N 50°49' W 001°06'0 0.0
2019-Jan-16 16:30N 50°49' W 001°06'2 3.5
2019-Jan-16 16:00N 50°47' W 001°06'714.0
2019-Jan-16 15:31N 50°40' W 001°04'917.3
2019-Jan-16 15:00N 50°33' W 001°11'5715.9
2019-Jan-16 11:25N 49°45' W 002°01'1213.0
2019-Jan-16 10:28N 49°34' W 002°09'612.9
2019-Jan-16 10:00N 49°29' W 002°12'612.9
2019-Jan-16 09:30N 49°23' W 002°17'712.9
2019-Jan-16 09:00N 49°17' W 002°20'912.7
2019-Jan-16 08:18N 49°10' W 002°12'9 2.8
2019-Jan-16 05:04N 49°15' W 002°23'117.4
2019-Jan-16 05:00N 49°16' W 002°24'917.5
2019-Jan-16 04:31N 49°24' W 002°28'4 8.0
2019-Jan-16 04:00N 49°27' W 002°32'0 0.0
2019-Jan-16 03:30N 49°27' W 002°32'0 0.0
2019-Jan-16 03:00N 49°27' W 002°32'4 8.0
2019-Jan-16 02:30N 49°26' W 002°26'714.7
2019-Jan-16 02:00N 49°31' W 002°17'814.9
2019-Jan-16 01:27N 49°37' W 002°08'714.3
2019-Jan-16 00:57N 49°44' W 002°04'5814.9
2019-Jan-15 21:01N 50°32' W 001°13'017.5
2019-Jan-15 21:00N 50°32' W 001°12'917.9
2019-Jan-15 20:30N 50°39' W 001°05'714.6
2019-Jan-15 20:00N 50°47' W 001°06'2 4.3
2019-Jan-15 19:30N 50°49' W 001°06'0 0.0
2019-Jan-15 19:00N 50°49' W 001°06'0 0.0
2019-Jan-15 18:30N 50°49' W 001°06'0 0.0
2019-Jan-15 18:00N 50°49' W 001°06'0 0.0
2019-Jan-15 17:30N 50°49' W 001°06'0 0.0
2019-Jan-15 17:00N 50°49' W 001°06'0 0.0
2019-Jan-15 16:30N 50°49' W 001°06'2 3.5
2019-Jan-15 16:00N 50°47' W 001°06'714.1
2019-Jan-15 15:30N 50°40' W 001°04'917.6
2019-Jan-15 15:00N 50°32' W 001°11'3315.8
2019-Jan-15 12:56N 50°05' W 001°39'1116.2
2019-Jan-15 12:13N 49°56' W 001°50'315.4
2019-Jan-15 12:00N 49°53' W 001°53'1714.6
2019-Jan-15 10:52N 49°39' W 002°06'713.5
2019-Jan-15 10:19N 49°32' W 002°11'513.2
2019-Jan-15 09:57N 49°28' W 002°13'613.3
2019-Jan-15 09:29N 49°22' W 002°17'714.6
2019-Jan-15 08:59N 49°15' W 002°21'1 0.3
2019-Jan-15 04:57N 49°16' W 002°23'715.7
2019-Jan-15 04:30N 49°22' W 002°27'612.0
2019-Jan-15 04:00N 49°27' W 002°32'0 0.0
2019-Jan-15 03:30N 49°27' W 002°32'0 0.0
2019-Jan-15 03:01N 49°27' W 002°32'4 7.6
2019-Jan-15 02:31N 49°26' W 002°26'612.8
2019-Jan-15 02:00N 49°30' W 002°18'713.0
2019-Jan-15 01:30N 49°34' W 002°10'1511.3
2019-Jan-15 00:13N 49°47' W 002°01'211.3
2019-Jan-15 00:01N 49°49' W 001°58'612.0
2019-Jan-14 23:30N 49°53' W 001°52'815.1
2019-Jan-14 23:01N 49°59' W 001°44'816.1
2019-Jan-14 22:30N 50°06' W 001°39'2816.7
2019-Jan-14 20:51N 50°30' W 001°16'617.7
2019-Jan-14 20:30N 50°35' W 001°10'917.3
2019-Jan-14 20:00N 50°42' W 001°03'713.5
2019-Jan-14 19:30N 50°48' W 001°07'1 1.7
2019-Jan-14 19:00N 50°49' W 001°06'0 0.0
2019-Jan-14 18:30N 50°49' W 001°06'0 0.0
2019-Jan-14 18:01N 50°49' W 001°06'0 0.0
2019-Jan-14 17:30N 50°49' W 001°06'0 0.0
2019-Jan-14 17:00N 50°49' W 001°06'0 0.0
2019-Jan-14 16:30N 50°49' W 001°06'2 4.4
2019-Jan-14 16:00N 50°47' W 001°06'612.9
2019-Jan-14 15:30N 50°40' W 001°04'918.4
2019-Jan-14 15:00N 50°32' W 001°12'3716.1
2019-Jan-14 12:43N 50°03' W 001°47'614.2
2019-Jan-14 12:16N 49°58' W 001°51'414.2
2019-Jan-14 12:00N 49°54' W 001°53'2215.7
2019-Jan-14 10:34N 49°34' W 002°09'114.4
2019-Jan-14 10:30N 49°33' W 002°10'714.6
2019-Jan-14 10:00N 49°27' W 002°15'714.9
2019-Jan-14 09:30N 49°21' W 002°21'811.7
2019-Jan-14 08:52N 49°13' W 002°20'  

Dump ship's entire track history